Time;durP1;ratioP1;P1;durP2;ratioP2;P2;SDS_P1;SDS_P2;PMS_P1;PMS_P2;Temp;Humidity;BMP_temperature;BMP_pressure;BME280_temperature;BME280_humidity;BME280_pressure;Samples;Min_cycle;Max_cycle;Signal;HPM_P1;HPM_P2
2021/03/02 00:01:41;;;;;;;8.03;4.97;;;;;;;2.33;73.26;100624.91;1735844;81;21213;-42
2021/03/02 00:04:10;;;;;;;7.55;4.87;;;;;;;2.40;73.12;100624.09;1763854;81;21182;-42
2021/03/02 00:06:39;;;;;;;6.12;4.72;;;;;;;2.42;72.97;100620.06;1767280;80;21579;-41
2021/03/02 00:09:08;;;;;;;8.15;5.25;;;;;;;2.41;73.00;100618.48;1767840;80;21393;-41
2021/03/02 00:11:38;;;;;;;7.40;4.47;;;;;;;2.38;73.08;100608.30;1767110;80;21195;-42
2021/03/02 00:14:06;;;;;;;9.23;4.75;;;;;;;2.41;73.07;100608.31;1767596;81;21274;-41
2021/03/02 00:16:35;;;;;;;9.38;4.60;;;;;;;2.43;72.95;100605.61;1772450;80;21123;-41
2021/03/02 00:19:15;;;;;;;8.35;5.03;;;;;;;2.44;72.84;100596.51;1765337;80;22088;-41
2021/03/02 00:21:51;;;;;;;6.55;4.70;;;;;;;2.40;72.91;100591.98;1730016;82;21577;-41
2021/03/02 00:24:34;;;;;;;5.67;4.28;;;;;;;2.35;73.04;100586.12;1798073;79;21190;-41
2021/03/02 00:27:03;;;;;;;8.65;5.10;;;;;;;2.34;73.15;100585.85;1813232;78;21380;-41
2021/03/02 00:29:32;;;;;;;6.05;4.05;;;;;;;2.35;73.17;100575.95;1752657;80;21420;-41
2021/03/02 00:34:00;;;;;;;7.60;5.10;;;;;;;2.38;73.12;100558.80;1829617;76;22566;-42
2021/03/02 00:36:28;;;;;;;8.95;5.25;;;;;;;2.24;73.31;100563.15;1810260;77;21593;-41
2021/03/02 00:38:56;;;;;;;6.67;4.58;;;;;;;2.26;73.28;100561.55;1746760;80;21449;-40
2021/03/02 00:41:24;;;;;;;8.73;5.50;;;;;;;2.19;73.11;100550.59;1744491;79;21067;-41
2021/03/02 00:43:53;;;;;;;10.88;6.03;;;;;;;2.29;73.15;100553.77;1734415;81;21058;-41
2021/03/02 00:46:21;;;;;;;9.83;6.15;;;;;;;2.25;73.19;100544.69;1734409;79;21609;-42
2021/03/02 00:48:50;;;;;;;12.10;6.78;;;;;;;2.21;73.29;100536.95;1759843;80;22073;-41
2021/03/02 00:51:18;;;;;;;9.35;6.05;;;;;;;2.17;73.40;100532.70;1765423;79;22390;-40
2021/03/02 00:53:46;;;;;;;10.65;6.67;;;;;;;2.21;73.27;100533.48;1759705;79;21181;-40
2021/03/02 00:56:15;;;;;;;10.53;6.75;;;;;;;2.18;73.27;100526.25;1737642;80;21060;-40
2021/03/02 00:58:44;;;;;;;12.03;6.60;;;;;;;2.13;73.35;100525.50;1752713;80;21193;-40
2021/03/02 01:01:14;;;;;;;11.68;6.47;;;;;;;2.07;73.42;100520.71;1771106;79;21215;-41
2021/03/02 01:03:44;;;;;;;11.08;6.53;;;;;;;2.04;73.56;100521.23;1776683;79;21636;-41
2021/03/02 01:06:14;;;;;;;9.03;6.60;;;;;;;2.05;73.60;100518.84;1775656;79;21168;-41
2021/03/02 01:08:43;;;;;;;11.18;7.00;;;;;;;2.02;73.65;100518.06;1750041;79;21246;-41
2021/03/02 01:11:12;;;;;;;9.63;6.22;;;;;;;1.98;73.78;100511.66;1744698;79;21122;-42
2021/03/02 01:13:40;;;;;;;8.53;6.03;;;;;;;1.92;73.94;100507.94;1716925;82;21178;-41
2021/03/02 01:16:09;;;;;;;9.98;6.65;;;;;;;1.87;74.27;100507.95;1750671;79;21202;-40
2021/03/02 01:18:37;;;;;;;11.70;6.47;;;;;;;1.92;74.12;100512.75;1729588;80;21210;-41
2021/03/02 01:21:05;;;;;;;10.58;6.12;;;;;;;1.89;74.13;100499.91;1717756;83;21134;-41
2021/03/02 01:23:35;;;;;;;9.88;6.50;;;;;;;1.84;74.26;100497.81;1747268;79;21578;-41
2021/03/02 01:26:04;;;;;;;10.08;6.12;;;;;;;1.80;74.38;100496.20;1745121;79;21207;-42
2021/03/02 01:28:32;;;;;;;10.88;6.00;;;;;;;1.78;74.45;100490.34;1745840;80;21473;-41
2021/03/02 01:31:00;;;;;;;9.33;5.70;;;;;;;1.81;74.37;100479.09;1749960;79;21175;-40
2021/03/02 01:33:29;;;;;;;12.68;6.40;;;;;;;1.80;74.38;100476.16;1750758;79;21571;-40
2021/03/02 01:35:57;;;;;;;12.40;6.12;;;;;;;1.78;74.48;100474.31;1788236;77;21573;-40
2021/03/02 01:38:25;;;;;;;14.68;6.08;;;;;;;1.71;74.66;100468.45;1794786;77;21494;-41
2021/03/02 01:40:54;;;;;;;8.98;5.45;;;;;;;1.69;74.78;100467.94;1792224;77;21364;-40
2021/03/02 01:43:24;;;;;;;9.28;5.55;;;;;;;1.71;74.76;100467.91;1792992;77;21174;-41
2021/03/02 01:45:52;;;;;;;8.95;6.00;;;;;;;1.70;74.80;100457.48;1810167;77;21592;-41
2021/03/02 01:48:21;;;;;;;8.38;5.37;;;;;;;1.66;74.94;100460.44;1795729;77;21224;-41
2021/03/02 01:50:49;;;;;;;10.10;5.80;;;;;;;1.64;74.95;100458.06;1745240;82;21135;-41
2021/03/02 01:53:17;;;;;;;8.63;5.22;;;;;;;1.65;74.99;100456.16;1786699;79;21174;-40
2021/03/02 01:55:45;;;;;;;9.33;6.10;;;;;;;1.69;74.86;100450.56;1751076;79;21639;-40
2021/03/02 01:58:14;;;;;;;8.98;5.53;;;;;;;1.65;74.92;100448.95;1790632;77;21023;-41
2021/03/02 02:00:42;;;;;;;9.73;5.85;;;;;;;1.63;75.04;100452.98;1807362;77;21039;-41
2021/03/02 02:03:23;;;;;;;8.73;4.50;;;;;;;1.61;75.11;100451.11;1787711;77;21155;-41
2021/03/02 02:06:23;;;;;;;10.50;6.58;;;;;;;1.59;75.18;100446.05;1770985;77;22362;-41
2021/03/02 02:09:01;;;;;;;;;;;;;;;1.62;75.12;100448.70;1799647;77;21175;-41
2021/03/02 02:11:40;;;;;;;8.50;5.70;;;;;;;1.56;75.45;100440.44;1811561;77;20117;-40
2021/03/02 02:14:45;;;;;;;9.83;5.30;;;;;;;1.43;75.84;100445.03;1781767;77;21142;-41
2021/03/02 02:17:30;;;;;;;9.15;6.22;;;;;;;1.46;75.87;100443.14;1790869;77;21132;-41
2021/03/02 02:20:06;;;;;;;8.30;5.10;;;;;;;1.52;75.83;100440.72;1790087;77;22365;-41
2021/03/02 02:23:12;;;;;;;10.03;6.03;;;;;;;1.54;75.98;100449.28;1781082;77;21146;-41
2021/03/02 02:25:54;;;;;;;9.00;5.17;;;;;;;1.48;75.99;100435.13;1803287;77;21142;-41
2021/03/02 02:28:23;;;;;;;10.75;6.45;;;;;;;1.60;75.90;100436.94;1797408;79;21151;-41
2021/03/02 02:30:55;;;;;;;12.70;6.65;;;;;;;1.66;75.70;100425.70;1746848;80;21186;-41
2021/03/02 02:33:27;;;;;;;9.63;6.08;;;;;;;1.69;75.64;100425.94;1728772;82;21457;-41
2021/03/02 02:35:55;;;;;;;9.25;6.35;;;;;;;1.69;75.61;100415.81;1706320;82;21117;-41
2021/03/02 02:38:24;;;;;;;10.30;6.50;;;;;;;1.70;75.54;100414.17;1773747;79;21146;-41
2021/03/02 02:40:52;;;;;;;11.40;6.12;;;;;;;1.76;75.38;100418.97;1780274;80;21141;-41
2021/03/02 02:43:20;;;;;;;9.13;6.75;;;;;;;1.77;75.27;100415.22;1752931;80;21160;-41
2021/03/02 02:45:49;;;;;;;11.65;7.10;;;;;;;1.76;75.31;100414.95;1753962;79;21484;-41
2021/03/02 02:48:17;;;;;;;10.32;6.42;;;;;;;1.77;75.29;100406.41;1767867;79;21052;-40
2021/03/02 02:50:47;;;;;;;11.20;6.60;;;;;;;1.80;75.15;100407.98;1780592;80;21187;-41
2021/03/02 02:53:15;;;;;;;12.33;7.20;;;;;;;1.80;75.12;100399.96;1779903;79;21115;-41
2021/03/02 02:55:50;;;;;;;10.03;6.53;;;;;;;1.78;75.16;100398.66;1776375;80;21147;-40
2021/03/02 02:58:20;;;;;;;11.50;6.75;;;;;;;1.80;75.18;100405.84;1770768;79;22310;-40
2021/03/02 03:00:49;;;;;;;12.55;7.95;;;;;;;1.80;75.06;100405.30;1770546;79;21593;-41
2021/03/02 03:03:21;;;;;;;10.78;8.03;;;;;;;1.79;74.98;100401.06;1770842;79;21034;-41
2021/03/02 03:05:52;;;;;;;11.08;8.18;;;;;;;1.78;74.95;100396.78;1772369;79;21148;-42
2021/03/02 03:08:22;;;;;;;12.20;7.97;;;;;;;1.78;74.87;100385.28;1790595;79;21101;-42
2021/03/02 03:10:52;;;;;;;13.15;8.58;;;;;;;1.83;74.69;100387.39;1789014;79;22191;-42
2021/03/02 03:13:23;;;;;;;16.17;7.40;;;;;;;1.82;74.58;100391.14;1781021;80;21037;-40
2021/03/02 03:15:57;;;;;;;15.20;9.75;;;;;;;1.78;74.55;100378.06;1774164;80;21004;-41
2021/03/02 03:18:28;;;;;;;14.53;9.48;;;;;;;1.75;74.67;100392.77;1780010;80;21589;-40
2021/03/02 03:20:59;;;;;;;13.35;9.03;;;;;;;1.74;74.72;100385.81;1769973;80;21105;-41
2021/03/02 03:23:28;;;;;;;13.22;10.20;;;;;;;1.74;74.65;100387.72;1751363;80;22122;-40
2021/03/02 03:25:56;;;;;;;14.33;9.73;;;;;;;1.71;74.73;100385.58;1779995;80;21188;-41
2021/03/02 03:28:25;;;;;;;15.60;10.23;;;;;;;1.68;74.77;100384.27;1779223;80;21066;-40
2021/03/02 03:30:53;;;;;;;15.15;10.80;;;;;;;1.72;74.67;100376.48;1778689;80;21187;-41
2021/03/02 03:33:21;;;;;;;17.40;11.80;;;;;;;1.71;74.70;100374.88;1770484;79;21175;-41
2021/03/02 03:35:51;;;;;;;;;;;;;;;1.65;74.86;100376.78;1799158;79;21170;-40
2021/03/02 03:38:19;;;;;;;14.55;9.83;;;;;;;1.64;74.99;100375.73;1788366;79;20661;-40
2021/03/02 03:40:48;;;;;;;16.97;12.23;;;;;;;1.61;75.16;100374.94;1793910;79;21549;-40
2021/03/02 03:43:16;;;;;;;16.80;11.53;;;;;;;1.62;75.19;100373.87;1791631;79;21138;-40
2021/03/02 03:45:44;;;;;;;19.80;13.48;;;;;;;1.60;75.20;100380.02;1792451;79;21187;-41
2021/03/02 03:48:13;;;;;;;18.35;12.95;;;;;;;1.61;75.22;100377.61;1797256;78;21198;-41
2021/03/02 03:50:41;;;;;;;21.80;14.15;;;;;;;1.63;75.23;100372.27;1784130;78;21147;-40
2021/03/02 03:53:09;;;;;;;22.20;14.38;;;;;;;1.63;75.25;100368.26;1795739;79;21151;-41
2021/03/02 03:55:41;;;;;;;19.92;13.03;;;;;;;1.62;75.25;100373.87;1709449;82;21161;-41
2021/03/02 03:58:11;;;;;;;18.75;12.93;;;;;;;1.63;75.28;100363.45;1711793;81;21182;-40
2021/03/02 04:00:39;;;;;;;23.57;13.90;;;;;;;1.69;75.19;100358.34;1733115;81;21359;-41
2021/03/02 04:03:08;;;;;;;22.00;14.40;;;;;;;1.70;75.11;100366.59;1727110;82;21170;-42
2021/03/02 04:05:36;;;;;;;21.17;13.30;;;;;;;1.64;75.16;100364.52;1735353;82;21143;-41
2021/03/02 04:08:06;;;;;;;17.25;11.90;;;;;;;1.61;75.35;100362.91;1754764;79;21175;-40
2021/03/02 04:10:35;;;;;;;18.35;12.37;;;;;;;1.58;75.42;100366.14;1749222;81;21198;-40
2021/03/02 04:13:15;;;;;;;23.00;13.48;;;;;;;1.61;75.25;100366.38;1754125;79;21599;-41
2021/03/02 04:15:43;;;;;;;14.45;11.38;;;;;;;1.56;75.37;100359.73;1758759;79;21193;-42
2021/03/02 04:18:17;;;;;;;18.93;12.50;;;;;;;1.53;75.56;100364.30;1758191;79;21182;-40
2021/03/02 04:20:47;;;;;;;18.80;12.20;;;;;;;1.56;75.52;100350.38;1751861;79;21149;-41
2021/03/02 04:23:15;;;;;;;17.73;11.80;;;;;;;1.61;75.37;100351.69;1760660;81;21600;-40
2021/03/02 04:25:44;;;;;;;16.45;12.40;;;;;;;1.59;75.38;100329.80;1755580;81;21283;-41
2021/03/02 04:28:12;;;;;;;18.48;13.05;;;;;;;1.57;75.48;100336.48;1768024;81;21442;-41
2021/03/02 04:30:40;;;;;;;19.80;13.68;;;;;;;1.52;75.56;100331.96;1754651;79;21145;-40
2021/03/02 04:33:09;;;;;;;19.80;13.15;;;;;;;1.54;75.59;100338.37;1744329;81;21179;-41
2021/03/02 04:35:38;;;;;;;20.08;13.35;;;;;;;1.52;75.66;100336.50;1733552;82;21618;-41
2021/03/02 04:38:06;;;;;;;17.67;11.83;;;;;;;1.48;75.73;100331.45;1749013;81;21370;-42
2021/03/02 04:40:35;;;;;;;18.37;12.40;;;;;;;1.47;75.83;100322.64;1731347;82;21151;-41
2021/03/02 04:43:03;;;;;;;17.15;12.30;;;;;;;1.50;75.65;100323.97;1731493;82;21621;-42
2021/03/02 04:45:33;;;;;;;18.62;12.68;;;;;;;1.49;75.74;100319.70;1728521;82;21155;-42
2021/03/02 04:48:01;;;;;;;21.45;13.22;;;;;;;1.49;75.82;100322.37;1778815;79;21154;-41
2021/03/02 04:50:30;;;;;;;15.58;11.55;;;;;;;1.47;75.84;100324.51;1791615;78;22110;-42
2021/03/02 04:52:58;;;;;;;19.87;13.83;;;;;;;1.55;75.67;100323.38;1786920;79;21461;-42
2021/03/02 04:55:26;;;;;;;21.33;14.83;;;;;;;1.60;75.58;100326.56;1737393;82;21162;-39
2021/03/02 04:57:55;;;;;;;19.10;12.82;;;;;;;1.59;75.50;100317.77;1760516;81;21145;-40
2021/03/02 05:00:24;;;;;;;18.40;13.10;;;;;;;1.39;75.47;100291.16;1761881;81;21120;-41
2021/03/02 05:02:52;;;;;;;15.78;12.53;;;;;;;1.63;75.39;100320.68;1757253;79;21287;-42
2021/03/02 05:05:21;;;;;;;18.32;14.03;;;;;;;1.61;75.36;100324.16;1759020;81;21218;-41
2021/03/02 05:07:50;;;;;;;18.98;12.73;;;;;;;1.59;75.50;100315.63;1747481;81;21155;-41
2021/03/02 05:10:18;;;;;;;20.45;12.63;;;;;;;1.61;75.42;100310.80;1759446;81;21172;-41
2021/03/02 05:12:46;;;;;;;19.07;12.93;;;;;;;1.63;75.39;100312.66;1768350;81;21596;-41
2021/03/02 05:15:16;;;;;;;19.92;10.95;;;;;;;1.65;75.38;100313.17;1751123;81;21355;-41
2021/03/02 05:17:45;;;;;;;20.82;12.00;;;;;;;1.62;75.39;100301.17;1756070;81;21187;-40
2021/03/02 05:20:14;;;;;;;21.12;13.55;;;;;;;1.63;75.42;100309.99;1736332;82;21623;-41
2021/03/02 05:22:43;;;;;;;21.60;14.33;;;;;;;1.69;75.61;100306.22;1728739;82;21208;-42
2021/03/02 05:25:12;;;;;;;26.80;17.02;;;;;;;1.69;75.61;100306.22;1734590;81;21484;-41
2021/03/02 05:27:40;;;;;;;20.35;12.88;;;;;;;1.67;75.39;100302.48;1742411;80;21353;-41
2021/03/02 05:30:12;;;;;;;27.48;17.50;;;;;;;1.68;75.42;100305.95;1737689;82;21176;-40
2021/03/02 05:32:40;;;;;;;22.95;16.60;;;;;;;1.72;75.34;100311.80;1740239;80;21132;-41
2021/03/02 05:35:09;;;;;;;27.20;17.48;;;;;;;1.80;75.20;100309.06;1754275;80;21203;-40
2021/03/02 05:37:38;;;;;;;26.25;15.50;;;;;;;1.81;75.20;100299.17;1779000;80;21115;-41
2021/03/02 05:40:10;;;;;;;28.92;18.37;;;;;;;1.79;75.11;100309.36;1775486;80;21035;-40
2021/03/02 05:42:38;;;;;;;26.50;17.27;;;;;;;1.78;75.12;100304.55;1753434;80;21165;-40
2021/03/02 05:45:08;;;;;;;28.47;19.02;;;;;;;1.81;75.05;100295.16;1746599;81;21212;-40
2021/03/02 05:47:37;;;;;;;;;;;;;;;1.81;75.01;100288.48;1778454;80;21130;-41
2021/03/02 05:50:07;;;;;;;31.95;18.92;;;;;;;1.76;75.11;100289.31;1747850;80;20271;-41
2021/03/02 05:52:36;;;;;;;31.60;19.77;;;;;;;1.66;75.44;100285.38;1752380;81;21382;-42
2021/03/02 05:55:06;;;;;;;26.33;18.05;;;;;;;1.72;75.38;100289.61;1762578;80;21182;-41
2021/03/02 05:57:35;;;;;;;28.15;19.02;;;;;;;1.75;75.32;100287.17;1714437;81;21178;-40
2021/03/02 06:00:05;;;;;;;32.03;20.12;;;;;;;1.76;75.34;100287.98;1767388;80;21584;-41
2021/03/02 06:02:33;;;;;;;29.12;17.87;;;;;;;1.75;75.37;100285.04;1747355;81;21131;-41
2021/03/02 06:05:02;;;;;;;32.13;21.00;;;;;;;1.80;75.26;100286.88;1775187;80;21455;-40
2021/03/02 06:07:31;;;;;;;31.95;19.15;;;;;;;1.87;75.11;100289.51;1778445;80;21029;-40
2021/03/02 06:09:59;;;;;;;32.83;20.65;;;;;;;1.84;75.08;100293.28;1753584;81;21147;-41
2021/03/02 06:12:29;;;;;;;31.82;19.67;;;;;;;1.83;75.14;100285.80;1753670;81;21076;-41
2021/03/02 06:15:03;;;;;;;33.53;19.65;;;;;;;1.83;75.20;100289.81;1780934;80;21105;-40
2021/03/02 06:17:31;;;;;;;31.30;20.70;;;;;;;1.88;75.12;100285.77;1769584;79;21386;-40
2021/03/02 06:20:00;;;;;;;34.65;20.37;;;;;;;1.87;75.03;100265.98;1742802;81;21146;-40
2021/03/02 06:22:41;;;;;;;30.17;19.80;;;;;;;1.85;75.06;100276.94;1749915;81;21414;-40
2021/03/02 06:25:28;;;;;;;32.67;20.50;;;;;;;1.89;75.07;100277.98;1751183;81;21027;-42
2021/03/02 06:27:57;;;;;;;31.80;19.87;;;;;;;1.94;74.95;100268.58;1738968;81;21138;-42
2021/03/02 06:30:26;;;;;;;37.13;21.77;;;;;;;1.93;74.91;100268.34;1759980;79;21438;-41
2021/03/02 06:32:56;;;;;;;33.40;20.02;;;;;;;1.91;74.94;100277.17;1765711;79;21200;-40
2021/03/02 06:35:42;;;;;;;36.03;21.27;;;;;;;1.91;74.98;100275.83;1751369;79;21713;-41
2021/03/02 06:38:10;;;;;;;34.88;20.65;;;;;;;1.97;74.87;100275.27;1765573;79;21060;-41
2021/03/02 06:40:46;;;;;;;33.63;20.57;;;;;;;2.00;74.85;100276.83;1733354;82;21205;-41
2021/03/02 06:43:39;;;;;;;40.43;21.90;;;;;;;2.03;74.79;100272.81;1733250;81;21200;-41
2021/03/02 06:46:10;;;;;;;33.20;19.90;;;;;;;2.06;74.58;100273.58;1734483;82;21656;-41
2021/03/02 06:48:59;;;;;;;38.80;22.27;;;;;;;2.08;74.37;100285.58;1783296;80;21139;-41
2021/03/02 06:51:32;;;;;;;39.00;22.52;;;;;;;2.10;74.36;100288.78;1779566;80;20992;-42
2021/03/02 06:54:16;;;;;;;39.38;20.88;;;;;;;2.10;74.47;100291.45;1768640;80;21186;-41
2021/03/02 06:56:44;;;;;;;38.95;22.27;;;;;;;2.11;74.45;100283.70;1740638;82;21577;-41
2021/03/02 06:59:17;;;;;;;40.48;23.10;;;;;;;2.11;74.38;100286.37;1738183;82;21591;-40
2021/03/02 07:01:47;;;;;;;40.85;21.70;;;;;;;2.16;74.12;100286.86;1766794;80;21184;-41
2021/03/02 07:04:18;;;;;;;46.48;24.85;;;;;;;2.15;74.15;100282.05;1735244;81;21145;-41
2021/03/02 07:06:51;;;;;;;44.33;22.90;;;;;;;2.15;74.15;100281.25;1705794;82;21612;-41
2021/03/02 07:09:18;;;;;;;44.03;24.18;;;;;;;2.17;74.00;100281.24;1714077;82;23609;-42
2021/03/02 07:11:46;;;;;;;46.23;25.32;;;;;;;2.22;73.83;100284.95;1753729;79;21153;-41
2021/03/02 07:14:15;;;;;;;49.98;25.97;;;;;;;2.25;73.66;100277.69;1768418;81;21173;-42
2021/03/02 07:16:45;;;;;;;52.25;25.70;;;;;;;2.24;73.71;100270.73;1741434;79;21192;-42
2021/03/02 07:19:19;;;;;;;49.42;24.90;;;;;;;2.22;73.67;100276.92;1737452;81;21542;-42
2021/03/02 07:21:50;;;;;;;45.67;23.98;;;;;;;2.24;73.83;100281.44;1736219;82;21392;-41
2021/03/02 07:24:19;;;;;;;47.70;25.75;;;;;;;2.31;73.59;100276.56;1736517;82;21626;-40
2021/03/02 07:26:48;;;;;;;49.75;27.17;;;;;;;2.35;73.37;100281.06;1739995;80;21533;-41
2021/03/02 07:29:16;;;;;;;56.25;25.82;;;;;;;2.31;73.23;100276.03;1736433;80;21125;-41
2021/03/02 07:31:44;;;;;;;52.95;26.75;;;;;;;2.29;73.34;100273.36;1735012;80;21414;-41
2021/03/02 07:34:13;;;;;;;54.38;27.27;;;;;;;2.31;73.38;100270.67;1742667;81;22314;-41
2021/03/02 07:36:43;;;;;;;47.73;24.20;;;;;;;2.38;73.22;100256.41;1763201;80;21178;-41
2021/03/02 07:39:25;;;;;;;51.65;25.75;;;;;;;2.42;73.23;100264.69;1703509;83;21037;-42
2021/03/02 07:41:53;;;;;;;52.17;26.23;;;;;;;2.39;73.11;100272.73;1774484;80;21016;-41
2021/03/02 07:44:21;;;;;;;57.58;28.62;;;;;;;2.36;73.23;100269.29;1760507;80;21126;-41
2021/03/02 07:46:54;;;;;;;52.75;27.32;;;;;;;2.31;73.22;100253.82;1754873;80;21285;-41
2021/03/02 07:49:31;;;;;;;57.08;28.40;;;;;;;2.43;73.15;100258.23;1746826;82;21137;-42
2021/03/02 07:52:12;;;;;;;57.80;29.05;;;;;;;2.41;73.17;100255.86;1747010;81;22164;-41
2021/03/02 07:54:41;;;;;;;54.70;27.45;;;;;;;2.40;73.22;100257.47;1747543;80;21429;-41
2021/03/02 07:57:21;;;;;;;53.52;27.30;;;;;;;2.41;73.14;100259.88;1747132;82;21551;-41
2021/03/02 08:00:18;;;;;;;48.10;21.90;;;;;;;2.44;73.10;100252.61;1750735;80;21197;-41
2021/03/02 08:03:24;;;;;;;60.70;29.85;;;;;;;2.47;73.15;100243.23;1749524;80;21092;-40
2021/03/02 08:05:58;;;;;;;56.20;26.95;;;;;;;2.41;73.33;100237.13;1749202;80;21110;-41
2021/03/02 08:08:29;;;;;;;52.13;27.67;;;;;;;2.39;73.45;100234.46;1749610;80;21148;-41
2021/03/02 08:11:02;;;;;;;58.50;28.47;;;;;;;2.42;73.43;100236.59;1748339;80;21530;-41
2021/03/02 08:13:39;;;;;;;56.68;27.35;;;;;;;2.47;73.37;100236.54;1746840;80;22992;-41
2021/03/02 08:16:15;;;;;;;62.53;30.05;;;;;;;2.42;73.33;100230.67;1748674;80;21134;-42
2021/03/02 08:18:45;;;;;;;55.92;27.17;;;;;;;2.39;73.52;100238.48;1747599;80;21183;-41
2021/03/02 08:21:19;;;;;;;59.20;29.10;;;;;;;2.41;73.56;100235.80;1745566;80;21581;-41
2021/03/02 08:23:59;;;;;;;54.98;26.87;;;;;;;2.47;73.44;100227.94;1757492;80;21594;-41
2021/03/02 08:26:35;;;;;;;55.43;26.82;;;;;;;2.52;73.33;100225.75;1748257;80;21362;-41
2021/03/02 08:29:17;;;;;;;59.60;29.10;;;;;;;2.51;73.37;100210.26;1750485;80;21713;-42
2021/03/02 08:31:47;;;;;;;56.88;27.50;;;;;;;2.52;73.26;100208.35;1747405;80;21605;-41
2021/03/02 08:34:18;;;;;;;55.92;26.70;;;;;;;2.52;73.11;100214.50;1747010;80;21658;-41
2021/03/02 08:36:52;;;;;;;51.77;26.00;;;;;;;2.57;72.99;100214.98;1748023;80;21155;-41
2021/03/02 08:39:30;;;;;;;58.50;27.85;;;;;;;2.57;72.93;100210.44;1834098;77;22539;-41
2021/03/02 08:41:59;;;;;;;57.17;28.05;;;;;;;2.52;72.99;100209.69;1807902;78;21057;-41
2021/03/02 08:44:27;;;;;;;49.67;26.30;;;;;;;2.49;73.13;100199.56;1814537;78;21192;-41
2021/03/02 08:46:56;;;;;;;54.20;26.68;;;;;;;2.53;73.04;100201.92;1801780;78;21029;-41
2021/03/02 08:49:25;;;;;;;54.50;25.92;;;;;;;2.58;72.88;100210.70;1813065;79;21043;-41
2021/03/02 08:52:03;;;;;;;53.98;25.27;;;;;;;2.57;72.94;100225.69;1786168;78;21514;-41
2021/03/02 08:54:32;;;;;;;51.18;25.15;;;;;;;2.55;72.98;100221.19;1737611;82;20980;-41
2021/03/02 08:57:03;;;;;;;51.58;26.10;;;;;;;2.55;73.02;100215.83;1753035;79;21453;-40
2021/03/02 08:59:32;;;;;;;53.38;26.25;;;;;;;2.57;72.98;100221.68;1740982;82;21048;-41
2021/03/02 09:02:00;;;;;;;42.85;19.42;;;;;;;2.57;73.08;100219.80;1746877;82;21317;-41
2021/03/02 09:04:33;;;;;;;53.42;24.72;;;;;;;2.56;73.16;100221.45;1748559;81;21147;-41
2021/03/02 09:07:01;;;;;;;49.75;25.23;;;;;;;2.57;73.15;100227.03;1743426;80;21132;-41
2021/03/02 09:09:31;;;;;;;50.12;25.05;;;;;;;2.63;73.18;100224.02;1757186;81;21380;-41
2021/03/02 09:12:00;;;;;;;51.73;24.50;;;;;;;2.68;73.00;100228.52;1741306;80;21087;-41
2021/03/02 09:14:33;;;;;;;51.88;25.70;;;;;;;2.68;72.94;100225.84;1728755;81;21415;-41
2021/03/02 09:17:06;;;;;;;50.03;24.35;;;;;;;2.69;72.88;100222.09;1725257;83;21158;-41
2021/03/02 09:19:40;;;;;;;47.73;25.25;;;;;;;2.75;72.78;100228.98;1752066;81;21569;-41
2021/03/02 09:22:14;;;;;;;46.30;23.25;;;;;;;2.85;72.60;100215.47;1735691;80;21381;-41
2021/03/02 09:24:48;;;;;;;47.25;24.10;;;;;;;2.85;72.07;100204.76;1729341;81;21645;-41
2021/03/02 09:27:19;;;;;;;47.65;23.55;;;;;;;2.83;72.22;100209.59;1747730;81;21162;-41
2021/03/02 09:29:52;;;;;;;46.23;23.40;;;;;;;2.83;72.12;100206.91;1747420;81;21585;-41
2021/03/02 09:32:26;;;;;;;44.50;22.70;;;;;;;2.84;72.12;100205.84;1752400;80;21177;-41
2021/03/02 09:35:00;;;;;;;43.02;22.35;;;;;;;2.91;71.91;100197.43;1746571;81;21378;-41
2021/03/02 09:37:28;;;;;;;47.23;23.80;;;;;;;2.96;71.84;100203.52;1744267;81;21186;-41
2021/03/02 09:40:11;;;;;;;43.33;21.85;;;;;;;2.99;71.80;100206.18;1728353;82;21179;-41
2021/03/02 09:42:41;;;;;;;40.78;21.68;;;;;;;2.95;71.52;100190.44;1734427;82;21129;-40
2021/03/02 09:45:17;;;;;;;;;;;;;;;2.95;71.50;100190.44;1723535;81;21558;-41
2021/03/02 09:47:48;;;;;;;40.85;21.50;;;;;;;2.99;71.37;100197.61;1729458;80;21207;-41
2021/03/02 09:50:20;;;;;;;41.58;21.80;;;;;;;2.85;71.59;100206.09;1737245;82;21141;-40
2021/03/02 09:52:50;;;;;;;44.65;22.15;;;;;;;2.84;71.73;100192.45;1744972;81;21155;-41
2021/03/02 09:55:31;;;;;;;39.88;21.85;;;;;;;2.89;71.67;100203.09;1743723;81;21202;-40
2021/03/02 09:58:18;;;;;;;41.75;22.42;;;;;;;2.93;71.49;100208.12;1741236;82;21382;-41
2021/03/02 10:00:49;;;;;;;41.53;21.57;;;;;;;2.98;71.24;100208.59;1736494;81;21582;-41
2021/03/02 10:03:22;;;;;;;40.67;22.65;;;;;;;2.97;71.43;100199.77;1714843;83;21187;-41
2021/03/02 10:05:59;;;;;;;39.88;20.23;;;;;;;2.98;71.41;100197.34;1718125;81;21127;-41
2021/03/02 10:08:43;;;;;;;37.45;20.70;;;;;;;3.00;71.35;100193.82;1727006;81;21674;-41
2021/03/02 10:11:16;;;;;;;40.40;21.42;;;;;;;3.10;71.20;100189.44;1720295;81;21206;-41
2021/03/02 10:13:51;;;;;;;40.40;21.35;;;;;;;3.10;70.88;100189.44;1717569;81;22053;-41
2021/03/02 10:16:38;;;;;;;39.55;21.15;;;;;;;3.02;70.79;100179.61;1715694;82;21172;-40
2021/03/02 10:19:28;;;;;;;41.08;21.50;;;;;;;3.00;71.02;100179.66;1719436;81;21626;-41
2021/03/02 10:21:58;;;;;;;41.23;23.05;;;;;;;3.01;71.08;100164.62;1736120;82;21156;-41
2021/03/02 10:24:35;;;;;;;40.48;22.52;;;;;;;3.03;71.04;100162.45;1740706;81;21585;-41
2021/03/02 10:27:20;;;;;;;41.50;21.00;;;;;;;3.03;71.12;100158.44;1772063;79;21604;-41
2021/03/02 10:29:50;;;;;;;40.33;22.77;;;;;;;3.04;71.13;100145.84;1773218;79;21040;-41
2021/03/02 10:32:18;;;;;;;43.52;23.83;;;;;;;3.06;71.09;100134.28;1736206;82;21109;-42
2021/03/02 10:34:46;;;;;;;42.65;23.32;;;;;;;3.12;70.91;100124.29;1733793;81;21162;-41
2021/03/02 10:37:15;;;;;;;43.52;24.25;;;;;;;3.14;70.95;100142.22;1748343;81;21111;-41
2021/03/02 10:39:45;;;;;;;40.83;23.52;;;;;;;3.13;70.81;100136.60;1762811;78;21190;-40
2021/03/02 10:42:15;;;;;;;38.10;21.95;;;;;;;3.15;70.83;100134.44;1764948;80;21052;-41
2021/03/02 10:44:44;;;;;;;;;;;;;;;3.20;70.78;100130.31;1750895;80;21115;-41
2021/03/02 10:47:12;;;;;;;41.48;21.95;;;;;;;3.29;70.35;100124.00;1746667;82;20550;-40
2021/03/02 10:49:40;;;;;;;38.38;22.90;;;;;;;3.22;70.60;100114.75;1751581;80;21150;-41
2021/03/02 10:52:09;;;;;;;41.05;22.95;;;;;;;3.26;70.40;100107.72;1769021;80;21387;-41
2021/03/02 10:54:37;;;;;;;35.95;21.07;;;;;;;3.32;70.33;100110.58;1721718;82;21160;-42
2021/03/02 10:57:06;;;;;;;40.58;23.32;;;;;;;3.37;70.22;100105.13;1719172;82;21207;-40
2021/03/02 10:59:34;;;;;;;39.55;22.48;;;;;;;3.44;69.91;100101.52;1696320;83;21205;-40
2021/03/02 11:02:04;;;;;;;38.08;21.55;;;;;;;3.55;69.40;100086.06;1700319;83;21212;-41
2021/03/02 11:04:32;;;;;;;37.67;21.50;;;;;;;3.56;69.24;100096.50;1686121;83;21507;-41
2021/03/02 11:07:01;;;;;;;43.33;23.77;;;;;;;3.57;69.24;100103.45;1695670;83;21057;-41
2021/03/02 11:09:29;;;;;;;40.98;22.90;;;;;;;3.60;69.24;100098.83;1704458;83;21186;-41
2021/03/02 11:11:57;;;;;;;36.17;20.72;;;;;;;3.65;68.73;100093.92;1725112;82;21228;-41
2021/03/02 11:14:25;;;;;;;36.55;21.50;;;;;;;3.71;68.42;100101.59;1730483;82;21158;-41
2021/03/02 11:16:53;;;;;;;36.48;21.25;;;;;;;3.78;68.21;100079.19;1721377;81;21352;-40
2021/03/02 11:19:22;;;;;;;39.48;23.12;;;;;;;3.77;67.97;100077.63;1713764;82;21087;-41
2021/03/02 11:21:50;;;;;;;39.45;22.02;;;;;;;3.77;67.61;100061.53;1718118;82;21593;-41
2021/03/02 11:24:19;;;;;;;39.78;22.02;;;;;;;3.74;67.70;100054.06;1692827;83;21209;-41
2021/03/02 11:26:48;;;;;;;35.05;20.52;;;;;;;3.73;67.90;100061.85;1700078;83;21119;-41
2021/03/02 11:29:17;;;;;;;38.75;22.00;;;;;;;3.79;67.86;100062.02;1713434;83;22385;-40
2021/03/02 11:31:47;;;;;;;33.53;20.70;;;;;;;3.89;67.81;100062.36;1696024;83;21144;-42
2021/03/02 11:34:16;;;;;;;42.43;23.35;;;;;;;3.87;67.32;100054.61;1714564;81;21141;-41
2021/03/02 11:36:45;;;;;;;37.65;22.17;;;;;;;3.88;67.59;100049.50;1718150;82;21183;-41
2021/03/02 11:39:16;;;;;;;40.48;22.80;;;;;;;3.84;67.40;100044.48;1738965;80;21560;-41
2021/03/02 11:41:44;;;;;;;38.28;22.17;;;;;;;3.82;67.49;100042.66;1767958;80;21216;-41
2021/03/02 11:44:11;;;;;;;40.35;22.48;;;;;;;3.85;67.66;100048.77;1799777;78;21129;-41